sensor_id;sensor_type;location;lat;lon;timestamp;P1;P2;P0
73861;PMS5003;63459;51.456;-0.916;2023-02-26T00:01:12;10;8;
73861;PMS5003;63459;51.456;-0.916;2023-02-26T00:03:37;6;5;
73861;PMS5003;63459;51.456;-0.916;2023-02-26T00:06:03;8;7;
73861;PMS5003;63459;51.456;-0.916;2023-02-26T00:08:27;6;5;
73861;PMS5003;63459;51.456;-0.916;2023-02-26T00:10:53;8;6;
73861;PMS5003;63459;51.456;-0.916;2023-02-26T00:13:19;4;4;
73861;PMS5003;63459;51.456;-0.916;2023-02-26T00:15:44;6;6;
73861;PMS5003;63459;51.456;-0.916;2023-02-26T00:18:11;8;7;
73861;PMS5003;63459;51.456;-0.916;2023-02-26T00:20:36;5;5;
73861;PMS5003;63459;51.456;-0.916;2023-02-26T00:25:26;6;4;
73861;PMS5003;63459;51.456;-0.916;2023-02-26T00:27:52;5;5;
73861;PMS5003;63459;51.456;-0.916;2023-02-26T00:30:17;6;5;
73861;PMS5003;63459;51.456;-0.916;2023-02-26T00:32:42;6;5;
73861;PMS5003;63459;51.456;-0.916;2023-02-26T00:35:09;4;4;
73861;PMS5003;63459;51.456;-0.916;2023-02-26T00:37:37;4;3;
73861;PMS5003;63459;51.456;-0.916;2023-02-26T00:40:02;5;5;
73861;PMS5003;63459;51.456;-0.916;2023-02-26T00:44:50;5;4;
73861;PMS5003;63459;51.456;-0.916;2023-02-26T00:47:17;4;4;
73861;PMS5003;63459;51.456;-0.916;2023-02-26T00:49:45;5;3;
73861;PMS5003;63459;51.456;-0.916;2023-02-26T00:52:09;5;3;
73861;PMS5003;63459;51.456;-0.916;2023-02-26T00:54:31;5;4;
73861;PMS5003;63459;51.456;-0.916;2023-02-26T00:56:57;4;4;
73861;PMS5003;63459;51.456;-0.916;2023-02-26T00:59:22;4;4;
73861;PMS5003;63459;51.456;-0.916;2023-02-26T01:01:47;3;3;
73861;PMS5003;63459;51.456;-0.916;2023-02-26T01:04:13;4;3;
73861;PMS5003;63459;51.456;-0.916;2023-02-26T01:06:40;4;4;
73861;PMS5003;63459;51.456;-0.916;2023-02-26T01:09:04;4;4;
73861;PMS5003;63459;51.456;-0.916;2023-02-26T01:11:29;3;2;
73861;PMS5003;63459;51.456;-0.916;2023-02-26T01:13:54;3;3;
73861;PMS5003;63459;51.456;-0.916;2023-02-26T01:16:21;2;2;
73861;PMS5003;63459;51.456;-0.916;2023-02-26T01:18:46;3;3;
73861;PMS5003;63459;51.456;-0.916;2023-02-26T01:21:11;5;3;
73861;PMS5003;63459;51.456;-0.916;2023-02-26T01:23:37;4;3;
73861;PMS5003;63459;51.456;-0.916;2023-02-26T01:26:02;2;2;
73861;PMS5003;63459;51.456;-0.916;2023-02-26T01:28:27;3;3;
73861;PMS5003;63459;51.456;-0.916;2023-02-26T01:30:53;5;3;
73861;PMS5003;63459;51.456;-0.916;2023-02-26T01:33:19;3;2;
73861;PMS5003;63459;51.456;-0.916;2023-02-26T01:35:44;6;6;
73861;PMS5003;63459;51.456;-0.916;2023-02-26T01:38:12;6;3;
73861;PMS5003;63459;51.456;-0.916;2023-02-26T01:40:37;3;2;
73861;PMS5003;63459;51.456;-0.916;2023-02-26T01:43:01;6;4;
73861;PMS5003;63459;51.456;-0.916;2023-02-26T01:47:57;3;2;
73861;PMS5003;63459;51.456;-0.916;2023-02-26T01:50:17;6;4;
73861;PMS5003;63459;51.456;-0.916;2023-02-26T01:55:07;3;2;
73861;PMS5003;63459;51.456;-0.916;2023-02-26T01:57:32;3;3;
73861;PMS5003;63459;51.456;-0.916;2023-02-26T01:59:57;4;3;
73861;PMS5003;63459;51.456;-0.916;2023-02-26T02:02:23;6;3;
73861;PMS5003;63459;51.456;-0.916;2023-02-26T02:04:48;3;3;
73861;PMS5003;63459;51.456;-0.916;2023-02-26T02:07:14;4;3;
73861;PMS5003;63459;51.456;-0.916;2023-02-26T02:09:39;3;2;
73861;PMS5003;63459;51.456;-0.916;2023-02-26T02:14:32;7;6;
73861;PMS5003;63459;51.456;-0.916;2023-02-26T02:16:57;3;3;
73861;PMS5003;63459;51.456;-0.916;2023-02-26T02:19:32;2;2;
73861;PMS5003;63459;51.456;-0.916;2023-02-26T02:21:52;2;2;
73861;PMS5003;63459;51.456;-0.916;2023-02-26T02:24:12;4;2;
73861;PMS5003;63459;51.456;-0.916;2023-02-26T02:29:08;6;4;
73861;PMS5003;63459;51.456;-0.916;2023-02-26T02:31:29;3;3;
73861;PMS5003;63459;51.456;-0.916;2023-02-26T02:33:54;4;3;
73861;PMS5003;63459;51.456;-0.916;2023-02-26T02:36:22;2;1;
73861;PMS5003;63459;51.456;-0.916;2023-02-26T02:38:46;2;2;
73861;PMS5003;63459;51.456;-0.916;2023-02-26T02:43:36;5;4;
73861;PMS5003;63459;51.456;-0.916;2023-02-26T02:46:01;3;3;
73861;PMS5003;63459;51.456;-0.916;2023-02-26T02:48:27;3;3;
73861;PMS5003;63459;51.456;-0.916;2023-02-26T02:50:52;2;2;
73861;PMS5003;63459;51.456;-0.916;2023-02-26T02:53:17;3;2;
73861;PMS5003;63459;51.456;-0.916;2023-02-26T02:55:43;7;6;
73861;PMS5003;63459;51.456;-0.916;2023-02-26T02:58:09;3;2;
73861;PMS5003;63459;51.456;-0.916;2023-02-26T03:00:33;4;2;
73861;PMS5003;63459;51.456;-0.916;2023-02-26T03:02:59;2;2;
73861;PMS5003;63459;51.456;-0.916;2023-02-26T03:05:24;5;4;
73861;PMS5003;63459;51.456;-0.916;2023-02-26T03:07:52;2;2;
73861;PMS5003;63459;51.456;-0.916;2023-02-26T03:10:16;2;2;
73861;PMS5003;63459;51.456;-0.916;2023-02-26T03:12:40;3;2;
73861;PMS5003;63459;51.456;-0.916;2023-02-26T03:15:06;3;2;
73861;PMS5003;63459;51.456;-0.916;2023-02-26T03:17:32;4;3;
73861;PMS5003;63459;51.456;-0.916;2023-02-26T03:19:59;5;4;
73861;PMS5003;63459;51.456;-0.916;2023-02-26T03:24:48;4;3;
73861;PMS5003;63459;51.456;-0.916;2023-02-26T03:36:55;4;4;
73861;PMS5003;63459;51.456;-0.916;2023-02-26T03:39:21;4;3;
73861;PMS5003;63459;51.456;-0.916;2023-02-26T03:41:48;13;12;
73861;PMS5003;63459;51.456;-0.916;2023-02-26T03:44:12;6;5;
73861;PMS5003;63459;51.456;-0.916;2023-02-26T03:46:38;5;4;
73861;PMS5003;63459;51.456;-0.916;2023-02-26T03:49:04;4;4;
73861;PMS5003;63459;51.456;-0.916;2023-02-26T03:51:28;2;2;
73861;PMS5003;63459;51.456;-0.916;2023-02-26T03:56:20;5;5;
73861;PMS5003;63459;51.456;-0.916;2023-02-26T03:58:46;4;4;
73861;PMS5003;63459;51.456;-0.916;2023-02-26T04:01:11;4;3;
73861;PMS5003;63459;51.456;-0.916;2023-02-26T04:03:37;2;2;
73861;PMS5003;63459;51.456;-0.916;2023-02-26T04:06:01;2;2;
73861;PMS5003;63459;51.456;-0.916;2023-02-26T04:08:27;5;3;
73861;PMS5003;63459;51.456;-0.916;2023-02-26T04:10:53;2;2;
73861;PMS5003;63459;51.456;-0.916;2023-02-26T04:13:17;2;2;
73861;PMS5003;63459;51.456;-0.916;2023-02-26T04:15:42;5;4;
73861;PMS5003;63459;51.456;-0.916;2023-02-26T04:18:07;4;4;
73861;PMS5003;63459;51.456;-0.916;2023-02-26T04:22:59;6;6;
73861;PMS5003;63459;51.456;-0.916;2023-02-26T04:27:49;7;4;
73861;PMS5003;63459;51.456;-0.916;2023-02-26T04:32:41;6;6;
73861;PMS5003;63459;51.456;-0.916;2023-02-26T04:35:06;4;4;
73861;PMS5003;63459;51.456;-0.916;2023-02-26T04:37:31;6;5;
73861;PMS5003;63459;51.456;-0.916;2023-02-26T04:39:57;6;6;
73861;PMS5003;63459;51.456;-0.916;2023-02-26T04:42:22;4;4;
73861;PMS5003;63459;51.456;-0.916;2023-02-26T04:44:47;4;3;
73861;PMS5003;63459;51.456;-0.916;2023-02-26T04:47:13;5;5;
73861;PMS5003;63459;51.456;-0.916;2023-02-26T04:54:29;5;4;
73861;PMS5003;63459;51.456;-0.916;2023-02-26T04:56:55;4;4;
73861;PMS5003;63459;51.456;-0.916;2023-02-26T04:59:20;6;5;
73861;PMS5003;63459;51.456;-0.916;2023-02-26T05:01:46;3;3;
73861;PMS5003;63459;51.456;-0.916;2023-02-26T05:04:11;5;4;
73861;PMS5003;63459;51.456;-0.916;2023-02-26T05:06:37;4;3;
73861;PMS5003;63459;51.456;-0.916;2023-02-26T05:09:03;7;4;
73861;PMS5003;63459;51.456;-0.916;2023-02-26T05:11:28;4;4;
73861;PMS5003;63459;51.456;-0.916;2023-02-26T05:16:18;3;3;
73861;PMS5003;63459;51.456;-0.916;2023-02-26T05:18:44;4;3;
73861;PMS5003;63459;51.456;-0.916;2023-02-26T05:23:34;3;3;
73861;PMS5003;63459;51.456;-0.916;2023-02-26T05:26:05;5;4;
73861;PMS5003;63459;51.456;-0.916;2023-02-26T05:28:25;3;3;
73861;PMS5003;63459;51.456;-0.916;2023-02-26T05:30:51;4;4;
73861;PMS5003;63459;51.456;-0.916;2023-02-26T05:33:16;6;4;
73861;PMS5003;63459;51.456;-0.916;2023-02-26T05:35:42;3;3;
73861;PMS5003;63459;51.456;-0.916;2023-02-26T05:38:07;3;3;
73861;PMS5003;63459;51.456;-0.916;2023-02-26T05:40:32;3;3;
73861;PMS5003;63459;51.456;-0.916;2023-02-26T05:45:23;4;3;
73861;PMS5003;63459;51.456;-0.916;2023-02-26T05:47:48;4;3;
73861;PMS5003;63459;51.456;-0.916;2023-02-26T05:50:14;5;4;
73861;PMS5003;63459;51.456;-0.916;2023-02-26T05:52:39;3;2;
73861;PMS5003;63459;51.456;-0.916;2023-02-26T05:55:06;3;3;
73861;PMS5003;63459;51.456;-0.916;2023-02-26T05:59:56;4;3;
73861;PMS5003;63459;51.456;-0.916;2023-02-26T06:02:21;5;3;
73861;PMS5003;63459;51.456;-0.916;2023-02-26T06:04:46;5;4;
73861;PMS5003;63459;51.456;-0.916;2023-02-26T06:09:37;5;4;
73861;PMS5003;63459;51.456;-0.916;2023-02-26T06:14:29;4;4;
73861;PMS5003;63459;51.456;-0.916;2023-02-26T06:16:54;4;3;
73861;PMS5003;63459;51.456;-0.916;2023-02-26T06:19:19;4;3;
73861;PMS5003;63459;51.456;-0.916;2023-02-26T06:21:45;3;3;
73861;PMS5003;63459;51.456;-0.916;2023-02-26T06:24:10;4;2;
73861;PMS5003;63459;51.456;-0.916;2023-02-26T06:29:01;3;3;
73861;PMS5003;63459;51.456;-0.916;2023-02-26T06:31:26;2;2;
73861;PMS5003;63459;51.456;-0.916;2023-02-26T06:33:52;2;2;
73861;PMS5003;63459;51.456;-0.916;2023-02-26T06:36:17;4;2;
73861;PMS5003;63459;51.456;-0.916;2023-02-26T06:38:43;5;3;
73861;PMS5003;63459;51.456;-0.916;2023-02-26T06:41:08;2;2;
73861;PMS5003;63459;51.456;-0.916;2023-02-26T06:43:34;2;1;
73861;PMS5003;63459;51.456;-0.916;2023-02-26T06:46:04;3;3;
73861;PMS5003;63459;51.456;-0.916;2023-02-26T06:48:24;2;2;
73861;PMS5003;63459;51.456;-0.916;2023-02-26T06:50:50;1;1;
73861;PMS5003;63459;51.456;-0.916;2023-02-26T06:53:20;3;3;
73861;PMS5003;63459;51.456;-0.916;2023-02-26T06:55:42;3;3;
73861;PMS5003;63459;51.456;-0.916;2023-02-26T07:00:31;2;2;
73861;PMS5003;63459;51.456;-0.916;2023-02-26T07:02:57;2;1;
73861;PMS5003;63459;51.456;-0.916;2023-02-26T07:07:47;4;4;
73861;PMS5003;63459;51.456;-0.916;2023-02-26T07:10:13;2;2;
73861;PMS5003;63459;51.456;-0.916;2023-02-26T07:12:38;4;2;
73861;PMS5003;63459;51.456;-0.916;2023-02-26T07:15:04;4;2;
73861;PMS5003;63459;51.456;-0.916;2023-02-26T07:17:34;3;2;
73861;PMS5003;63459;51.456;-0.916;2023-02-26T07:19:55;3;3;
73861;PMS5003;63459;51.456;-0.916;2023-02-26T07:22:20;2;2;
73861;PMS5003;63459;51.456;-0.916;2023-02-26T07:29:36;2;2;
73861;PMS5003;63459;51.456;-0.916;2023-02-26T07:32:02;4;2;
73861;PMS5003;63459;51.456;-0.916;2023-02-26T07:34:27;2;2;
73861;PMS5003;63459;51.456;-0.916;2023-02-26T07:36:52;3;1;
73861;PMS5003;63459;51.456;-0.916;2023-02-26T07:39:18;4;3;
73861;PMS5003;63459;51.456;-0.916;2023-02-26T07:44:08;3;3;
73861;PMS5003;63459;51.456;-0.916;2023-02-26T07:46:34;6;2;
73861;PMS5003;63459;51.456;-0.916;2023-02-26T07:48:59;2;2;
73861;PMS5003;63459;51.456;-0.916;2023-02-26T07:51:24;6;4;
73861;PMS5003;63459;51.456;-0.916;2023-02-26T07:53:50;5;4;
73861;PMS5003;63459;51.456;-0.916;2023-02-26T07:58:40;6;5;
73861;PMS5003;63459;51.456;-0.916;2023-02-26T08:01:06;4;3;
73861;PMS5003;63459;51.456;-0.916;2023-02-26T08:03:31;3;2;
73861;PMS5003;63459;51.456;-0.916;2023-02-26T08:05:56;1;1;
73861;PMS5003;63459;51.456;-0.916;2023-02-26T08:08:22;4;3;
73861;PMS5003;63459;51.456;-0.916;2023-02-26T08:10:52;4;3;
73861;PMS5003;63459;51.456;-0.916;2023-02-26T08:13:13;2;2;
73861;PMS5003;63459;51.456;-0.916;2023-02-26T08:15:38;3;3;
73861;PMS5003;63459;51.456;-0.916;2023-02-26T08:18:03;2;2;
73861;PMS5003;63459;51.456;-0.916;2023-02-26T08:20:29;3;3;
73861;PMS5003;63459;51.456;-0.916;2023-02-26T08:22:54;2;1;
73861;PMS5003;63459;51.456;-0.916;2023-02-26T08:25:20;3;2;
73861;PMS5003;63459;51.456;-0.916;2023-02-26T08:27:45;4;2;
73861;PMS5003;63459;51.456;-0.916;2023-02-26T08:30:11;2;2;
73861;PMS5003;63459;51.456;-0.916;2023-02-26T08:32:36;3;2;
73861;PMS5003;63459;51.456;-0.916;2023-02-26T08:35:01;4;3;
73861;PMS5003;63459;51.456;-0.916;2023-02-26T08:37:28;2;2;
73861;PMS5003;63459;51.456;-0.916;2023-02-26T08:39:52;6;4;
73861;PMS5003;63459;51.456;-0.916;2023-02-26T08:42:17;4;3;
73861;PMS5003;63459;51.456;-0.916;2023-02-26T08:44:43;3;2;
73861;PMS5003;63459;51.456;-0.916;2023-02-26T08:47:08;2;2;
73861;PMS5003;63459;51.456;-0.916;2023-02-26T08:49:43;2;2;
73861;PMS5003;63459;51.456;-0.916;2023-02-26T08:51:59;1;1;
73861;PMS5003;63459;51.456;-0.916;2023-02-26T08:54:24;1;1;
73861;PMS5003;63459;51.456;-0.916;2023-02-26T08:56:50;3;3;
73861;PMS5003;63459;51.456;-0.916;2023-02-26T08:59:15;4;4;
73861;PMS5003;63459;51.456;-0.916;2023-02-26T09:01:40;2;2;
73861;PMS5003;63459;51.456;-0.916;2023-02-26T09:06:31;3;1;
73861;PMS5003;63459;51.456;-0.916;2023-02-26T09:08:56;2;2;
73861;PMS5003;63459;51.456;-0.916;2023-02-26T09:11:22;2;2;
73861;PMS5003;63459;51.456;-0.916;2023-02-26T09:16:12;5;4;
73861;PMS5003;63459;51.456;-0.916;2023-02-26T09:18:38;2;2;
73861;PMS5003;63459;51.456;-0.916;2023-02-26T09:21:03;6;3;
73861;PMS5003;63459;51.456;-0.916;2023-02-26T09:23:28;5;3;
73861;PMS5003;63459;51.456;-0.916;2023-02-26T09:25:53;3;2;
73861;PMS5003;63459;51.456;-0.916;2023-02-26T09:28:19;3;3;
73861;PMS5003;63459;51.456;-0.916;2023-02-26T09:30:50;4;3;
73861;PMS5003;63459;51.456;-0.916;2023-02-26T09:33:10;1;1;
73861;PMS5003;63459;51.456;-0.916;2023-02-26T09:35:35;3;2;
73861;PMS5003;63459;51.456;-0.916;2023-02-26T09:38:00;2;2;
73861;PMS5003;63459;51.456;-0.916;2023-02-26T09:40:29;3;2;
73861;PMS5003;63459;51.456;-0.916;2023-02-26T09:42:56;2;2;
73861;PMS5003;63459;51.456;-0.916;2023-02-26T09:47:43;2;2;
73861;PMS5003;63459;51.456;-0.916;2023-02-26T09:50:10;3;3;
73861;PMS5003;63459;51.456;-0.916;2023-02-26T09:52:34;3;2;
73861;PMS5003;63459;51.456;-0.916;2023-02-26T09:54:59;2;2;
73861;PMS5003;63459;51.456;-0.916;2023-02-26T09:57:27;4;2;
73861;PMS5003;63459;51.456;-0.916;2023-02-26T09:59:49;2;2;
73861;PMS5003;63459;51.456;-0.916;2023-02-26T10:02:15;4;4;
73861;PMS5003;63459;51.456;-0.916;2023-02-26T10:04:47;2;2;
73861;PMS5003;63459;51.456;-0.916;2023-02-26T10:07:09;5;3;
73861;PMS5003;63459;51.456;-0.916;2023-02-26T10:09:40;3;2;
73861;PMS5003;63459;51.456;-0.916;2023-02-26T10:14:22;2;2;
73861;PMS5003;63459;51.456;-0.916;2023-02-26T10:16:48;4;2;
73861;PMS5003;63459;51.456;-0.916;2023-02-26T10:19:13;2;2;
73861;PMS5003;63459;51.456;-0.916;2023-02-26T10:21:38;1;1;
73861;PMS5003;63459;51.456;-0.916;2023-02-26T10:24:05;2;2;
73861;PMS5003;63459;51.456;-0.916;2023-02-26T10:26:29;1;1;
73861;PMS5003;63459;51.456;-0.916;2023-02-26T10:28:55;2;1;
73861;PMS5003;63459;51.456;-0.916;2023-02-26T10:31:21;2;1;
73861;PMS5003;63459;51.456;-0.916;2023-02-26T10:36:13;2;2;
73861;PMS5003;63459;51.456;-0.916;2023-02-26T10:38:35;2;1;
73861;PMS5003;63459;51.456;-0.916;2023-02-26T10:41:01;2;2;
73861;PMS5003;63459;51.456;-0.916;2023-02-26T10:43:26;4;2;
73861;PMS5003;63459;51.456;-0.916;2023-02-26T10:45:56;2;1;
73861;PMS5003;63459;51.456;-0.916;2023-02-26T10:48:20;2;1;
73861;PMS5003;63459;51.456;-0.916;2023-02-26T10:50:43;2;1;
73861;PMS5003;63459;51.456;-0.916;2023-02-26T10:53:07;1;1;
73861;PMS5003;63459;51.456;-0.916;2023-02-26T10:55:34;3;1;
73861;PMS5003;63459;51.456;-0.916;2023-02-26T10:58:00;3;2;
73861;PMS5003;63459;51.456;-0.916;2023-02-26T11:00:23;1;1;
73861;PMS5003;63459;51.456;-0.916;2023-02-26T11:02:49;2;2;
73861;PMS5003;63459;51.456;-0.916;2023-02-26T11:05:15;2;1;
73861;PMS5003;63459;51.456;-0.916;2023-02-26T11:07:39;2;2;
73861;PMS5003;63459;51.456;-0.916;2023-02-26T11:12:30;2;1;
73861;PMS5003;63459;51.456;-0.916;2023-02-26T11:14:55;2;1;
73861;PMS5003;63459;51.456;-0.916;2023-02-26T11:17:21;1;1;
73861;PMS5003;63459;51.456;-0.916;2023-02-26T11:19:49;1;1;
73861;PMS5003;63459;51.456;-0.916;2023-02-26T11:22:11;1;1;
73861;PMS5003;63459;51.456;-0.916;2023-02-26T11:24:38;1;1;
73861;PMS5003;63459;51.456;-0.916;2023-02-26T11:27:03;1;1;
73861;PMS5003;63459;51.456;-0.916;2023-02-26T11:29:27;1;1;
73861;PMS5003;63459;51.456;-0.916;2023-02-26T11:31:53;0;0;
73861;PMS5003;63459;51.456;-0.916;2023-02-26T11:34:20;0;0;
73861;PMS5003;63459;51.456;-0.916;2023-02-26T11:36:43;2;1;
73861;PMS5003;63459;51.456;-0.916;2023-02-26T11:39:13;0;0;
73861;PMS5003;63459;51.456;-0.916;2023-02-26T11:41:35;0;0;
73861;PMS5003;63459;51.456;-0.916;2023-02-26T11:44:00;1;1;
73861;PMS5003;63459;51.456;-0.916;2023-02-26T11:46:25;1;1;
73861;PMS5003;63459;51.456;-0.916;2023-02-26T11:51:18;1;1;
73861;PMS5003;63459;51.456;-0.916;2023-02-26T11:53:42;1;1;
73861;PMS5003;63459;51.456;-0.916;2023-02-26T11:56:08;1;1;
73861;PMS5003;63459;51.456;-0.916;2023-02-26T11:58:34;2;1;
73861;PMS5003;63459;51.456;-0.916;2023-02-26T12:00:57;1;0;
73861;PMS5003;63459;51.456;-0.916;2023-02-26T12:05:48;1;1;
73861;PMS5003;63459;51.456;-0.916;2023-02-26T12:08:16;0;0;
73861;PMS5003;63459;51.456;-0.916;2023-02-26T12:10:39;2;1;
73861;PMS5003;63459;51.456;-0.916;2023-02-26T12:13:06;2;0;
73861;PMS5003;63459;51.456;-0.916;2023-02-26T12:15:31;1;1;
73861;PMS5003;63459;51.456;-0.916;2023-02-26T12:20:20;2;2;
73861;PMS5003;63459;51.456;-0.916;2023-02-26T12:22:47;2;1;
73861;PMS5003;63459;51.456;-0.916;2023-02-26T12:27:39;2;1;
73861;PMS5003;63459;51.456;-0.916;2023-02-26T12:32:30;1;1;
73861;PMS5003;63459;51.456;-0.916;2023-02-26T12:34:57;2;1;
73861;PMS5003;63459;51.456;-0.916;2023-02-26T12:37:23;3;2;
73861;PMS5003;63459;51.456;-0.916;2023-02-26T12:39:47;2;1;
73861;PMS5003;63459;51.456;-0.916;2023-02-26T12:42:12;1;1;
73861;PMS5003;63459;51.456;-0.916;2023-02-26T12:47:03;1;1;
73861;PMS5003;63459;51.456;-0.916;2023-02-26T12:49:28;2;1;
73861;PMS5003;63459;51.456;-0.916;2023-02-26T12:51:55;1;0;
73861;PMS5003;63459;51.456;-0.916;2023-02-26T12:54:19;0;0;
73861;PMS5003;63459;51.456;-0.916;2023-02-26T12:56:49;3;1;
73861;PMS5003;63459;51.456;-0.916;2023-02-26T12:59:11;1;1;
73861;PMS5003;63459;51.456;-0.916;2023-02-26T13:01:36;2;0;
73861;PMS5003;63459;51.456;-0.916;2023-02-26T13:04:00;1;1;
73861;PMS5003;63459;51.456;-0.916;2023-02-26T13:06:30;1;1;
73861;PMS5003;63459;51.456;-0.916;2023-02-26T13:08:48;1;1;
73861;PMS5003;63459;51.456;-0.916;2023-02-26T13:13:43;1;1;
73861;PMS5003;63459;51.456;-0.916;2023-02-26T13:16:07;1;1;
73861;PMS5003;63459;51.456;-0.916;2023-02-26T13:20:54;0;0;
73861;PMS5003;63459;51.456;-0.916;2023-02-26T13:23:21;0;0;
73861;PMS5003;63459;51.456;-0.916;2023-02-26T13:25:46;0;0;
73861;PMS5003;63459;51.456;-0.916;2023-02-26T13:28:15;0;0;
73861;PMS5003;63459;51.456;-0.916;2023-02-26T13:30:37;1;0;
73861;PMS5003;63459;51.456;-0.916;2023-02-26T13:33:01;1;1;
73861;PMS5003;63459;51.456;-0.916;2023-02-26T13:35:26;2;1;
73861;PMS5003;63459;51.456;-0.916;2023-02-26T13:37:52;1;1;
73861;PMS5003;63459;51.456;-0.916;2023-02-26T13:42:44;1;1;
73861;PMS5003;63459;51.456;-0.916;2023-02-26T13:45:16;0;0;
73861;PMS5003;63459;51.456;-0.916;2023-02-26T13:47:35;1;1;
73861;PMS5003;63459;51.456;-0.916;2023-02-26T13:50:02;1;0;
73861;PMS5003;63459;51.456;-0.916;2023-02-26T13:54:49;0;0;
73861;PMS5003;63459;51.456;-0.916;2023-02-26T13:59:46;1;1;
73861;PMS5003;63459;51.456;-0.916;2023-02-26T14:04:30;4;2;
73861;PMS5003;63459;51.456;-0.916;2023-02-26T14:06:55;0;0;
73861;PMS5003;63459;51.456;-0.916;2023-02-26T14:11:46;3;2;
73861;PMS5003;63459;51.456;-0.916;2023-02-26T14:14:12;1;1;
73861;PMS5003;63459;51.456;-0.916;2023-02-26T14:16:38;0;0;
73861;PMS5003;63459;51.456;-0.916;2023-02-26T14:21:36;1;1;
73861;PMS5003;63459;51.456;-0.916;2023-02-26T14:23:54;1;1;
73861;PMS5003;63459;51.456;-0.916;2023-02-26T14:26:17;2;2;
73861;PMS5003;63459;51.456;-0.916;2023-02-26T14:31:13;2;1;
73861;PMS5003;63459;51.456;-0.916;2023-02-26T14:33:36;3;2;
73861;PMS5003;63459;51.456;-0.916;2023-02-26T14:35:59;1;1;
73861;PMS5003;63459;51.456;-0.916;2023-02-26T14:38:25;1;1;
73861;PMS5003;63459;51.456;-0.916;2023-02-26T14:40:51;5;2;
73861;PMS5003;63459;51.456;-0.916;2023-02-26T14:43:17;1;1;
73861;PMS5003;63459;51.456;-0.916;2023-02-26T14:45:41;2;1;
73861;PMS5003;63459;51.456;-0.916;2023-02-26T14:48:06;2;1;
73861;PMS5003;63459;51.456;-0.916;2023-02-26T14:50:33;1;1;
73861;PMS5003;63459;51.456;-0.916;2023-02-26T14:53:02;2;1;
73861;PMS5003;63459;51.456;-0.916;2023-02-26T14:55:26;1;1;
73861;PMS5003;63459;51.456;-0.916;2023-02-26T14:57:49;1;1;
73861;PMS5003;63459;51.456;-0.916;2023-02-26T15:00:16;1;1;
73861;PMS5003;63459;51.456;-0.916;2023-02-26T15:02:42;1;1;
73861;PMS5003;63459;51.456;-0.916;2023-02-26T15:05:09;1;1;
73861;PMS5003;63459;51.456;-0.916;2023-02-26T15:07:32;1;0;
73861;PMS5003;63459;51.456;-0.916;2023-02-26T15:09:58;2;1;
73861;PMS5003;63459;51.456;-0.916;2023-02-26T15:12:23;3;2;
73861;PMS5003;63459;51.456;-0.916;2023-02-26T15:17:15;1;1;
73861;PMS5003;63459;51.456;-0.916;2023-02-26T15:19:39;4;3;
73861;PMS5003;63459;51.456;-0.916;2023-02-26T15:22:03;5;5;
73861;PMS5003;63459;51.456;-0.916;2023-02-26T15:24:25;5;5;
73861;PMS5003;63459;51.456;-0.916;2023-02-26T15:26:52;1;1;
73861;PMS5003;63459;51.456;-0.916;2023-02-26T15:29:16;2;2;
73861;PMS5003;63459;51.456;-0.916;2023-02-26T15:34:08;5;4;
73861;PMS5003;63459;51.456;-0.916;2023-02-26T15:36:31;4;4;
73861;PMS5003;63459;51.456;-0.916;2023-02-26T15:38:58;2;2;
73861;PMS5003;63459;51.456;-0.916;2023-02-26T15:41:23;1;1;
73861;PMS5003;63459;51.456;-0.916;2023-02-26T15:43:48;1;1;
73861;PMS5003;63459;51.456;-0.916;2023-02-26T15:46:13;2;2;
73861;PMS5003;63459;51.456;-0.916;2023-02-26T15:48:38;3;1;
73861;PMS5003;63459;51.456;-0.916;2023-02-26T15:51:04;3;3;
73861;PMS5003;63459;51.456;-0.916;2023-02-26T15:53:30;4;3;
73861;PMS5003;63459;51.456;-0.916;2023-02-26T15:55:55;1;1;
73861;PMS5003;63459;51.456;-0.916;2023-02-26T15:58:21;1;0;
73861;PMS5003;63459;51.456;-0.916;2023-02-26T16:00:50;0;0;
73861;PMS5003;63459;51.456;-0.916;2023-02-26T16:03:11;1;1;
73861;PMS5003;63459;51.456;-0.916;2023-02-26T16:05:36;3;0;
73861;PMS5003;63459;51.456;-0.916;2023-02-26T16:08:01;2;1;
73861;PMS5003;63459;51.456;-0.916;2023-02-26T16:12:52;2;2;
73861;PMS5003;63459;51.456;-0.916;2023-02-26T16:15:27;2;1;
73861;PMS5003;63459;51.456;-0.916;2023-02-26T16:17:43;3;2;
73861;PMS5003;63459;51.456;-0.916;2023-02-26T16:20:11;2;0;
73861;PMS5003;63459;51.456;-0.916;2023-02-26T16:22:34;2;1;
73861;PMS5003;63459;51.456;-0.916;2023-02-26T16:24:59;1;1;
73861;PMS5003;63459;51.456;-0.916;2023-02-26T16:27:24;4;3;
73861;PMS5003;63459;51.456;-0.916;2023-02-26T16:29:50;3;3;
73861;PMS5003;63459;51.456;-0.916;2023-02-26T16:32:15;1;1;
73861;PMS5003;63459;51.456;-0.916;2023-02-26T16:34:42;2;2;
73861;PMS5003;63459;51.456;-0.916;2023-02-26T16:39:31;3;2;
73861;PMS5003;63459;51.456;-0.916;2023-02-26T16:46:47;6;6;
73861;PMS5003;63459;51.456;-0.916;2023-02-26T16:49:23;1;1;
73861;PMS5003;63459;51.456;-0.916;2023-02-26T16:51:42;1;1;
73861;PMS5003;63459;51.456;-0.916;2023-02-26T16:54:04;1;1;
73861;PMS5003;63459;51.456;-0.916;2023-02-26T16:56:29;1;1;
73861;PMS5003;63459;51.456;-0.916;2023-02-26T16:58:54;1;1;
73861;PMS5003;63459;51.456;-0.916;2023-02-26T17:01:19;2;2;
73861;PMS5003;63459;51.456;-0.916;2023-02-26T17:03:44;1;1;
73861;PMS5003;63459;51.456;-0.916;2023-02-26T17:06:11;2;2;
73861;PMS5003;63459;51.456;-0.916;2023-02-26T17:08:41;1;1;
73861;PMS5003;63459;51.456;-0.916;2023-02-26T17:11:00;1;1;
73861;PMS5003;63459;51.456;-0.916;2023-02-26T17:13:26;3;2;
73861;PMS5003;63459;51.456;-0.916;2023-02-26T17:15:51;2;2;
73861;PMS5003;63459;51.456;-0.916;2023-02-26T17:20:41;3;3;
73861;PMS5003;63459;51.456;-0.916;2023-02-26T17:23:07;3;3;
73861;PMS5003;63459;51.456;-0.916;2023-02-26T17:25:33;5;5;
73861;PMS5003;63459;51.456;-0.916;2023-02-26T17:28:02;4;3;
73861;PMS5003;63459;51.456;-0.916;2023-02-26T17:30:22;8;8;
73861;PMS5003;63459;51.456;-0.916;2023-02-26T17:32:47;10;10;
73861;PMS5003;63459;51.456;-0.916;2023-02-26T17:35:13;9;9;
73861;PMS5003;63459;51.456;-0.916;2023-02-26T17:37:38;11;9;
73861;PMS5003;63459;51.456;-0.916;2023-02-26T17:40:05;8;8;
73861;PMS5003;63459;51.456;-0.916;2023-02-26T17:42:29;8;8;
73861;PMS5003;63459;51.456;-0.916;2023-02-26T17:47:20;5;5;
73861;PMS5003;63459;51.456;-0.916;2023-02-26T17:49:45;6;6;
73861;PMS5003;63459;51.456;-0.916;2023-02-26T17:52:10;6;6;
73861;PMS5003;63459;51.456;-0.916;2023-02-26T17:54:35;9;9;
73861;PMS5003;63459;51.456;-0.916;2023-02-26T17:57:01;12;11;
73861;PMS5003;63459;51.456;-0.916;2023-02-26T18:01:52;20;18;
73861;PMS5003;63459;51.456;-0.916;2023-02-26T18:04:17;13;12;
73861;PMS5003;63459;51.456;-0.916;2023-02-26T18:06:49;10;10;
73861;PMS5003;63459;51.456;-0.916;2023-02-26T18:09:09;9;8;
73861;PMS5003;63459;51.456;-0.916;2023-02-26T18:11:33;13;11;
73861;PMS5003;63459;51.456;-0.916;2023-02-26T18:13:58;17;15;
73861;PMS5003;63459;51.456;-0.916;2023-02-26T18:16:25;11;10;
73861;PMS5003;63459;51.456;-0.916;2023-02-26T18:18:49;14;12;
73861;PMS5003;63459;51.456;-0.916;2023-02-26T18:21:14;9;9;
73861;PMS5003;63459;51.456;-0.916;2023-02-26T18:23:39;10;10;
73861;PMS5003;63459;51.456;-0.916;2023-02-26T18:26:05;9;9;
73861;PMS5003;63459;51.456;-0.916;2023-02-26T18:28:30;7;7;
73861;PMS5003;63459;51.456;-0.916;2023-02-26T18:30:56;6;6;
73861;PMS5003;63459;51.456;-0.916;2023-02-26T18:33:22;8;8;
73861;PMS5003;63459;51.456;-0.916;2023-02-26T18:43:08;7;7;
73861;PMS5003;63459;51.456;-0.916;2023-02-26T18:45:28;6;6;
73861;PMS5003;63459;51.456;-0.916;2023-02-26T18:47:53;5;5;
73861;PMS5003;63459;51.456;-0.916;2023-02-26T18:50:19;14;13;
73861;PMS5003;63459;51.456;-0.916;2023-02-26T18:52:44;7;6;
73861;PMS5003;63459;51.456;-0.916;2023-02-26T18:55:10;6;5;